sensor_id;sensor_type;location;lat;lon;timestamp;pressure;altitude;pressure_sealevel;temperature;humidity
13695;BME280;6919;52.344;14.518;2023-07-29T00:01:17;100333.78;;;18.26;100.00
13695;BME280;6919;52.344;14.518;2023-07-29T00:03:45;100332.13;;;18.25;100.00
13695;BME280;6919;52.344;14.518;2023-07-29T00:06:14;100336.50;;;18.19;100.00
13695;BME280;6919;52.344;14.518;2023-07-29T00:08:42;100336.09;;;18.16;100.00
13695;BME280;6919;52.344;14.518;2023-07-29T00:11:10;100326.50;;;18.13;100.00
13695;BME280;6919;52.344;14.518;2023-07-29T00:13:39;100335.06;;;18.17;100.00
13695;BME280;6919;52.344;14.518;2023-07-29T00:16:08;100335.91;;;18.24;100.00
13695;BME280;6919;52.344;14.518;2023-07-29T00:18:36;100326.06;;;18.23;100.00
13695;BME280;6919;52.344;14.518;2023-07-29T00:21:05;100333.78;;;18.26;100.00
13695;BME280;6919;52.344;14.518;2023-07-29T00:23:33;100341.94;;;18.26;100.00
13695;BME280;6919;52.344;14.518;2023-07-29T00:26:02;100337.56;;;18.25;100.00
13695;BME280;6919;52.344;14.518;2023-07-29T00:28:30;100344.22;;;18.29;100.00
13695;BME280;6919;52.344;14.518;2023-07-29T00:30:58;100344.22;;;18.29;100.00
13695;BME280;6919;52.344;14.518;2023-07-29T00:33:28;100343.19;;;18.30;100.00
13695;BME280;6919;52.344;14.518;2023-07-29T00:35:56;100337.75;;;18.30;100.00
13695;BME280;6919;52.344;14.518;2023-07-29T00:38:28;100341.31;;;18.30;100.00
13695;BME280;6919;52.344;14.518;2023-07-29T00:40:57;100332.94;;;18.25;100.00
13695;BME280;6919;52.344;14.518;2023-07-29T00:43:28;100330.25;;;18.32;100.00
13695;BME280;6919;52.344;14.518;2023-07-29T00:45:56;100318.34;;;18.13;100.00
13695;BME280;6919;52.344;14.518;2023-07-29T00:48:28;100320.22;;;18.13;100.00
13695;BME280;6919;52.344;14.518;2023-07-29T00:50:57;100317.50;;;18.06;100.00
13695;BME280;6919;52.344;14.518;2023-07-29T00:53:25;100323.78;;;18.07;100.00
13695;BME280;6919;52.344;14.518;2023-07-29T00:55:55;100319.38;;;18.06;100.00
13695;BME280;6919;52.344;14.518;2023-07-29T00:58:24;100320.22;;;17.87;100.00
13695;BME280;6919;52.344;14.518;2023-07-29T01:00:54;100327.94;;;17.90;100.00
13695;BME280;6919;52.344;14.518;2023-07-29T01:03:22;100322.94;;;17.87;100.00
13695;BME280;6919;52.344;14.518;2023-07-29T01:06:11;100326.91;;;17.78;100.00
13695;BME280;6919;52.344;14.518;2023-07-29T01:08:53;100331.69;;;17.82;100.00
13695;BME280;6919;52.344;14.518;2023-07-29T01:11:38;100334.84;;;17.86;100.00
13695;BME280;6919;52.344;14.518;2023-07-29T01:14:21;100333.19;;;17.85;100.00
13695;BME280;6919;52.344;14.518;2023-07-29T01:16:56;100328.13;;;17.75;100.00
13695;BME280;6919;52.344;14.518;2023-07-29T01:19:48;100330.25;;;17.73;100.00
13695;BME280;6919;52.344;14.518;2023-07-29T01:22:25;100330.84;;;17.69;100.00
13695;BME280;6919;52.344;14.518;2023-07-29T01:24:54;100324.38;;;17.57;100.00
13695;BME280;6919;52.344;14.518;2023-07-29T01:27:23;100317.66;;;17.52;100.00
13695;BME280;6919;52.344;14.518;2023-07-29T01:29:51;100323.31;;;17.64;100.00
13695;BME280;6919;52.344;14.518;2023-07-29T01:32:27;100317.47;;;17.48;100.00
13695;BME280;6919;52.344;14.518;2023-07-29T01:35:05;100315.59;;;17.48;100.00
13695;BME280;6919;52.344;14.518;2023-07-29T01:37:38;100317.47;;;17.54;100.00
13695;BME280;6919;52.344;14.518;2023-07-29T01:40:11;100313.53;;;17.57;100.00
13695;BME280;6919;52.344;14.518;2023-07-29T01:42:39;100305.16;;;17.45;100.00
13695;BME280;6919;52.344;14.518;2023-07-29T01:45:08;100299.91;;;17.37;100.00
13695;BME280;6919;52.344;14.518;2023-07-29T01:47:37;100308.06;;;17.43;100.00
13695;BME280;6919;52.344;14.518;2023-07-29T01:50:09;100305.38;;;17.43;100.00
13695;BME280;6919;52.344;14.518;2023-07-29T01:52:37;100306.53;;;17.34;100.00
13695;BME280;6919;52.344;14.518;2023-07-29T01:55:06;100305.03;;;17.19;100.00
13695;BME280;6919;52.344;14.518;2023-07-29T01:57:36;100305.69;;;17.27;100.00
13695;BME280;6919;52.344;14.518;2023-07-29T02:00:06;100297.53;;;17.14;100.00
13695;BME280;6919;52.344;14.518;2023-07-29T02:02:35;100286.06;;;17.06;100.00
13695;BME280;6919;52.344;14.518;2023-07-29T02:05:04;100290.00;;;17.03;100.00
13695;BME280;6919;52.344;14.518;2023-07-29T02:07:32;100274.97;;;17.01;100.00
13695;BME280;6919;52.344;14.518;2023-07-29T02:10:00;100277.06;;;16.99;100.00
13695;BME280;6919;52.344;14.518;2023-07-29T02:12:28;100274.97;;;16.94;100.00
13695;BME280;6919;52.344;14.518;2023-07-29T02:14:58;100266.19;;;16.92;100.00
13695;BME280;6919;52.344;14.518;2023-07-29T02:17:26;100265.97;;;16.87;100.00
13695;BME280;6919;52.344;14.518;2023-07-29T02:19:55;100272.44;;;16.86;100.00
13695;BME280;6919;52.344;14.518;2023-07-29T02:22:23;100271.19;;;16.82;100.00
13695;BME280;6919;52.344;14.518;2023-07-29T02:24:51;100268.81;;;16.73;100.00
13695;BME280;6919;52.344;14.518;2023-07-29T02:27:19;100269.88;;;16.72;100.00
13695;BME280;6919;52.344;14.518;2023-07-29T02:29:48;100267.59;;;16.75;100.00
13695;BME280;6919;52.344;14.518;2023-07-29T02:32:17;100267.41;;;16.83;100.00
13695;BME280;6919;52.344;14.518;2023-07-29T02:34:46;100266.56;;;16.76;100.00
13695;BME280;6919;52.344;14.518;2023-07-29T02:37:14;100261.34;;;16.75;100.00
13695;BME280;6919;52.344;14.518;2023-07-29T02:39:42;100258.63;;;16.68;100.00
13695;BME280;6919;52.344;14.518;2023-07-29T02:42:10;100255.91;;;16.68;100.00
13695;BME280;6919;52.344;14.518;2023-07-29T02:44:40;100266.38;;;16.78;100.00
13695;BME280;6919;52.344;14.518;2023-07-29T02:47:08;100261.34;;;16.81;100.00
13695;BME280;6919;52.344;14.518;2023-07-29T02:49:39;100275.47;;;16.70;100.00
13695;BME280;6919;52.344;14.518;2023-07-29T02:52:07;100262.78;;;16.64;100.00
13695;BME280;6919;52.344;14.518;2023-07-29T02:54:36;100276.06;;;16.59;100.00
13695;BME280;6919;52.344;14.518;2023-07-29T02:57:04;100271.03;;;16.56;100.00
13695;BME280;6919;52.344;14.518;2023-07-29T02:59:32;100271.88;;;16.57;100.00
13695;BME280;6919;52.344;14.518;2023-07-29T03:02:01;100277.72;;;16.60;100.00
13695;BME280;6919;52.344;14.518;2023-07-29T03:04:32;100281.44;;;16.53;100.00
13695;BME280;6919;52.344;14.518;2023-07-29T03:07:02;100279.78;;;16.52;100.00
13695;BME280;6919;52.344;14.518;2023-07-29T03:09:30;100283.31;;;16.52;100.00
13695;BME280;6919;52.344;14.518;2023-07-29T03:12:00;100284.94;;;16.47;100.00
13695;BME280;6919;52.344;14.518;2023-07-29T03:14:28;100278.47;;;16.48;100.00
13695;BME280;6919;52.344;14.518;2023-07-29T03:16:56;100282.25;;;16.53;100.00
13695;BME280;6919;52.344;14.518;2023-07-29T03:19:25;100280.84;;;16.57;100.00
13695;BME280;6919;52.344;14.518;2023-07-29T03:21:53;100294.44;;;16.70;100.00
13695;BME280;6919;52.344;14.518;2023-07-29T03:24:26;100297.78;;;16.72;100.00
13695;BME280;6919;52.344;14.518;2023-07-29T03:26:54;100293.63;;;16.70;100.00
13695;BME280;6919;52.344;14.518;2023-07-29T03:29:22;100304.06;;;16.79;100.00
13695;BME280;6919;52.344;14.518;2023-07-29T03:31:50;100306.81;;;16.86;100.00
13695;BME280;6919;52.344;14.518;2023-07-29T03:34:18;100296.53;;;16.75;100.00
13695;BME280;6919;52.344;14.518;2023-07-29T03:36:47;100289.84;;;16.64;100.00
13695;BME280;6919;52.344;14.518;2023-07-29T03:39:15;100285.50;;;16.76;100.00
13695;BME280;6919;52.344;14.518;2023-07-29T03:41:45;100269.44;;;16.68;100.00
13695;BME280;6919;52.344;14.518;2023-07-29T03:44:13;100254.69;;;16.77;100.00
13695;BME280;6919;52.344;14.518;2023-07-29T03:46:45;100250.97;;;16.78;100.00
13695;BME280;6919;52.344;14.518;2023-07-29T03:49:13;100244.25;;;16.74;100.00
13695;BME280;6919;52.344;14.518;2023-07-29T03:51:41;100250.72;;;16.73;100.00
13695;BME280;6919;52.344;14.518;2023-07-29T03:54:10;100247.59;;;16.76;100.00
13695;BME280;6919;52.344;14.518;2023-07-29T03:56:38;100259.97;;;16.92;100.00
13695;BME280;6919;52.344;14.518;2023-07-29T03:59:07;100262.88;;;16.90;100.00
13695;BME280;6919;52.344;14.518;2023-07-29T04:01:36;100273.97;;;17.02;100.00
13695;BME280;6919;52.344;14.518;2023-07-29T04:04:04;100281.69;;;17.11;100.00
13695;BME280;6919;52.344;14.518;2023-07-29T04:06:32;100282.94;;;17.15;100.00
13695;BME280;6919;52.344;14.518;2023-07-29T04:09:01;100278.38;;;17.22;100.00
13695;BME280;6919;52.344;14.518;2023-07-29T04:11:30;100287.38;;;17.23;100.00
13695;BME280;6919;52.344;14.518;2023-07-29T04:13:58;100297.16;;;17.30;100.00
13695;BME280;6919;52.344;14.518;2023-07-29T04:16:28;100296.75;;;17.33;100.00
13695;BME280;6919;52.344;14.518;2023-07-29T04:18:56;100285.13;;;17.52;100.00
13695;BME280;6919;52.344;14.518;2023-07-29T04:21:26;100289.75;;;17.52;100.00
13695;BME280;6919;52.344;14.518;2023-07-29T04:23:54;100297.91;;;17.65;100.00
13695;BME280;6919;52.344;14.518;2023-07-29T04:26:22;100293.50;;;17.84;100.00
13695;BME280;6919;52.344;14.518;2023-07-29T04:28:50;100279.13;;;17.90;100.00
13695;BME280;6919;52.344;14.518;2023-07-29T04:31:19;100274.13;;;18.00;100.00
13695;BME280;6919;52.344;14.518;2023-07-29T04:33:48;100258.06;;;17.92;100.00
13695;BME280;6919;52.344;14.518;2023-07-29T04:36:17;100255.09;;;18.13;100.00
13695;BME280;6919;52.344;14.518;2023-07-29T04:38:45;100238.81;;;18.06;100.00
13695;BME280;6919;52.344;14.518;2023-07-29T04:41:13;100237.72;;;18.27;100.00
13695;BME280;6919;52.344;14.518;2023-07-29T04:43:41;100225.44;;;18.31;100.00
13695;BME280;6919;52.344;14.518;2023-07-29T04:46:10;100213.31;;;18.40;100.00
13695;BME280;6919;52.344;14.518;2023-07-29T04:48:38;100219.97;;;18.44;100.00
13695;BME280;6919;52.344;14.518;2023-07-29T04:51:08;100212.84;;;18.56;100.00
13695;BME280;6919;52.344;14.518;2023-07-29T04:53:36;100201.69;;;18.77;100.00
13695;BME280;6919;52.344;14.518;2023-07-29T04:56:05;100188.47;;;18.80;100.00
13695;BME280;6919;52.344;14.518;2023-07-29T04:58:33;100180.69;;;18.90;100.00
13695;BME280;6919;52.344;14.518;2023-07-29T05:01:03;100172.84;;;19.07;100.00
13695;BME280;6919;52.344;14.518;2023-07-29T05:03:31;100159.44;;;19.12;100.00
13695;BME280;6919;52.344;14.518;2023-07-29T05:06:00;100153.31;;;19.23;100.00
13695;BME280;6919;52.344;14.518;2023-07-29T05:08:29;100157.50;;;19.25;100.00
13695;BME280;6919;52.344;14.518;2023-07-29T05:10:58;100150.69;;;19.41;100.00
13695;BME280;6919;52.344;14.518;2023-07-29T05:13:26;100139.53;;;19.49;100.00
13695;BME280;6919;52.344;14.518;2023-07-29T05:15:54;100133.44;;;19.47;100.00
13695;BME280;6919;52.344;14.518;2023-07-29T05:18:23;100126.72;;;19.74;100.00
13695;BME280;6919;52.344;14.518;2023-07-29T05:20:51;100120.91;;;19.70;100.00
13695;BME280;6919;52.344;14.518;2023-07-29T05:23:19;100130.13;;;19.87;100.00
13695;BME280;6919;52.344;14.518;2023-07-29T05:25:49;100115.59;;;20.18;100.00
13695;BME280;6919;52.344;14.518;2023-07-29T05:28:17;100103.44;;;20.32;100.00
13695;BME280;6919;52.344;14.518;2023-07-29T05:30:45;100097.19;;;20.32;100.00
13695;BME280;6919;52.344;14.518;2023-07-29T05:33:14;100100.44;;;20.40;100.00
13695;BME280;6919;52.344;14.518;2023-07-29T05:35:42;100094.19;;;20.81;100.00
13695;BME280;6919;52.344;14.518;2023-07-29T05:38:10;100081.03;;;21.07;100.00
13695;BME280;6919;52.344;14.518;2023-07-29T05:40:38;100064.44;;;21.43;100.00
13695;BME280;6919;52.344;14.518;2023-07-29T05:43:08;100067.28;;;21.48;100.00
13695;BME280;6919;52.344;14.518;2023-07-29T05:45:36;100063.84;;;21.41;100.00
13695;BME280;6919;52.344;14.518;2023-07-29T05:48:05;100053.41;;;21.61;100.00
13695;BME280;6919;52.344;14.518;2023-07-29T05:50:33;100057.56;;;21.41;100.00
13695;BME280;6919;52.344;14.518;2023-07-29T05:53:01;100069.44;;;21.46;100.00
13695;BME280;6919;52.344;14.518;2023-07-29T05:55:30;100077.97;;;21.50;100.00
13695;BME280;6919;52.344;14.518;2023-07-29T05:57:58;100070.59;;;21.27;100.00
13695;BME280;6919;52.344;14.518;2023-07-29T06:00:28;100071.44;;;21.62;100.00
13695;BME280;6919;52.344;14.518;2023-07-29T06:02:56;100054.47;;;21.60;100.00
13695;BME280;6919;52.344;14.518;2023-07-29T06:05:24;100053.44;;;21.73;100.00
13695;BME280;6919;52.344;14.518;2023-07-29T06:07:53;100052.75;;;22.05;100.00
13695;BME280;6919;52.344;14.518;2023-07-29T06:10:21;100043.88;;;21.98;100.00
13695;BME280;6919;52.344;14.518;2023-07-29T06:12:50;100042.66;;;22.06;100.00
13695;BME280;6919;52.344;14.518;2023-07-29T06:15:18;100044.06;;;22.08;100.00
13695;BME280;6919;52.344;14.518;2023-07-29T06:17:51;100039.88;;;21.89;100.00
13695;BME280;6919;52.344;14.518;2023-07-29T06:20:23;100044.63;;;21.82;100.00
13695;BME280;6919;52.344;14.518;2023-07-29T06:22:51;100049.78;;;22.07;100.00
13695;BME280;6919;52.344;14.518;2023-07-29T06:25:19;100048.59;;;22.14;100.00
13695;BME280;6919;52.344;14.518;2023-07-29T06:27:49;100048.13;;;22.06;100.00
13695;BME280;6919;52.344;14.518;2023-07-29T06:30:17;100045.09;;;22.30;100.00
13695;BME280;6919;52.344;14.518;2023-07-29T06:32:46;100043.38;;;22.41;100.00
13695;BME280;6919;52.344;14.518;2023-07-29T06:35:16;100039.56;;;22.70;100.00
13695;BME280;6919;52.344;14.518;2023-07-29T06:37:44;100034.28;;;22.97;100.00
13695;BME280;6919;52.344;14.518;2023-07-29T06:40:13;100023.19;;;22.86;100.00
13695;BME280;6919;52.344;14.518;2023-07-29T06:42:41;100011.09;;;23.16;100.00
13695;BME280;6919;52.344;14.518;2023-07-29T06:45:10;100007.84;;;23.19;100.00
13695;BME280;6919;52.344;14.518;2023-07-29T06:47:38;100001.41;;;23.25;100.00
13695;BME280;6919;52.344;14.518;2023-07-29T06:50:08;99994.84;;;23.09;100.00
13695;BME280;6919;52.344;14.518;2023-07-29T06:52:37;100003.31;;;22.91;100.00
13695;BME280;6919;52.344;14.518;2023-07-29T06:55:08;99996.84;;;23.14;100.00
13695;BME280;6919;52.344;14.518;2023-07-29T06:57:36;99990.56;;;23.30;100.00
13695;BME280;6919;52.344;14.518;2023-07-29T07:00:07;99991.53;;;23.07;100.00
13695;BME280;6919;52.344;14.518;2023-07-29T07:02:36;99991.53;;;23.07;100.00
13695;BME280;6919;52.344;14.518;2023-07-29T07:05:05;99988.03;;;23.45;100.00
13695;BME280;6919;52.344;14.518;2023-07-29T07:07:33;99979.22;;;23.43;100.00
13695;BME280;6919;52.344;14.518;2023-07-29T07:10:04;99977.72;;;22.97;100.00
13695;BME280;6919;52.344;14.518;2023-07-29T07:12:33;99976.34;;;23.16;100.00
13695;BME280;6919;52.344;14.518;2023-07-29T07:15:01;99984.06;;;23.19;100.00
13695;BME280;6919;52.344;14.518;2023-07-29T07:17:30;99979.44;;;23.36;100.00
13695;BME280;6919;52.344;14.518;2023-07-29T07:19:58;99990.56;;;23.30;100.00
13695;BME280;6919;52.344;14.518;2023-07-29T07:22:26;99991.22;;;22.87;100.00
13695;BME280;6919;52.344;14.518;2023-07-29T07:24:55;99989.38;;;22.92;100.00
13695;BME280;6919;52.344;14.518;2023-07-29T07:27:24;99994.59;;;23.11;100.00
13695;BME280;6919;52.344;14.518;2023-07-29T07:29:52;99982.19;;;23.58;100.00
13695;BME280;6919;52.344;14.518;2023-07-29T07:32:21;99980.34;;;23.63;100.00
13695;BME280;6919;52.344;14.518;2023-07-29T07:34:49;99983.09;;;23.25;100.00
13695;BME280;6919;52.344;14.518;2023-07-29T07:37:17;99986.44;;;23.49;100.00
13695;BME280;6919;52.344;14.518;2023-07-29T07:39:45;99999.72;;;24.00;100.00
13695;BME280;6919;52.344;14.518;2023-07-29T07:42:13;99977.56;;;24.54;100.00
13695;BME280;6919;52.344;14.518;2023-07-29T07:44:43;99979.34;;;24.65;100.00
13695;BME280;6919;52.344;14.518;2023-07-29T07:47:11;99976.81;;;23.84;100.00
13695;BME280;6919;52.344;14.518;2023-07-29T07:49:40;99985.25;;;23.83;100.00
13695;BME280;6919;52.344;14.518;2023-07-29T07:52:08;99986.66;;;24.07;100.00
13695;BME280;6919;52.344;14.518;2023-07-29T07:54:36;99976.78;;;24.27;100.00
13695;BME280;6919;52.344;14.518;2023-07-29T07:57:05;99978.19;;;24.35;100.00
13695;BME280;6919;52.344;14.518;2023-07-29T07:59:34;99977.03;;;24.79;100.00
13695;BME280;6919;52.344;14.518;2023-07-29T08:02:04;99969.09;;;25.19;100.00
13695;BME280;6919;52.344;14.518;2023-07-29T08:04:32;99961.13;;;24.81;100.00
13695;BME280;6919;52.344;14.518;2023-07-29T08:07:01;99957.75;;;24.74;100.00
13695;BME280;6919;52.344;14.518;2023-07-29T08:09:29;99953.59;;;24.66;100.00
13695;BME280;6919;52.344;14.518;2023-07-29T08:11:57;99947.22;;;24.92;100.00
13695;BME280;6919;52.344;14.518;2023-07-29T08:14:26;99948.81;;;25.25;100.00
13695;BME280;6919;52.344;14.518;2023-07-29T08:16:54;99940.22;;;25.53;100.00
13695;BME280;6919;52.344;14.518;2023-07-29T08:19:24;99940.19;;;25.48;100.00
13695;BME280;6919;52.344;14.518;2023-07-29T08:21:52;99947.09;;;25.56;100.00
13695;BME280;6919;52.344;14.518;2023-07-29T08:24:20;99950.50;;;25.78;100.00
13695;BME280;6919;52.344;14.518;2023-07-29T08:26:48;99953.16;;;25.58;100.00
13695;BME280;6919;52.344;14.518;2023-07-29T08:29:16;99954.25;;;25.20;100.00
13695;BME280;6919;52.344;14.518;2023-07-29T08:31:47;99954.22;;;25.10;100.00
13695;BME280;6919;52.344;14.518;2023-07-29T08:34:17;99948.34;;;24.96;100.00
13695;BME280;6919;52.344;14.518;2023-07-29T08:36:47;99959.38;;;24.43;100.00
13695;BME280;6919;52.344;14.518;2023-07-29T08:39:15;99958.31;;;24.18;100.00
13695;BME280;6919;52.344;14.518;2023-07-29T08:41:51;99955.50;;;24.13;100.00
13695;BME280;6919;52.344;14.518;2023-07-29T08:44:23;99957.31;;;24.02;100.00
13695;BME280;6919;52.344;14.518;2023-07-29T08:46:52;99954.28;;;24.25;100.00
13695;BME280;6919;52.344;14.518;2023-07-29T08:49:23;99952.25;;;24.42;100.00
13695;BME280;6919;52.344;14.518;2023-07-29T08:51:53;99939.94;;;24.71;100.00
13695;BME280;6919;52.344;14.518;2023-07-29T08:54:31;99943.47;;;25.03;100.00
13695;BME280;6919;52.344;14.518;2023-07-29T08:56:59;99945.50;;;25.18;100.00
13695;BME280;6919;52.344;14.518;2023-07-29T08:59:29;99936.94;;;25.09;100.00
13695;BME280;6919;52.344;14.518;2023-07-29T09:01:58;99947.28;;;25.39;100.00
13695;BME280;6919;52.344;14.518;2023-07-29T09:04:29;99938.72;;;24.94;100.00
13695;BME280;6919;52.344;14.518;2023-07-29T09:06:59;99935.88;;;24.79;100.00
13695;BME280;6919;52.344;14.518;2023-07-29T09:09:29;99932.69;;;24.60;100.00
13695;BME280;6919;52.344;14.518;2023-07-29T09:11:58;99936.19;;;24.24;100.00
13695;BME280;6919;52.344;14.518;2023-07-29T09:14:27;99938.59;;;24.21;100.00
13695;BME280;6919;52.344;14.518;2023-07-29T09:16:56;99939.41;;;24.48;100.00
13695;BME280;6919;52.344;14.518;2023-07-29T09:19:25;99940.78;;;24.77;100.00
13695;BME280;6919;52.344;14.518;2023-07-29T09:21:54;99928.63;;;24.99;100.00
13695;BME280;6919;52.344;14.518;2023-07-29T09:24:23;99930.13;;;25.17;100.00
13695;BME280;6919;52.344;14.518;2023-07-29T09:26:52;99919.69;;;25.14;100.00
13695;BME280;6919;52.344;14.518;2023-07-29T09:29:23;99907.69;;;24.88;100.00
13695;BME280;6919;52.344;14.518;2023-07-29T09:31:51;99907.34;;;24.75;100.00
13695;BME280;6919;52.344;14.518;2023-07-29T09:34:20;99909.81;;;25.18;100.00
13695;BME280;6919;52.344;14.518;2023-07-29T09:36:50;99900.59;;;25.34;100.00
13695;BME280;6919;52.344;14.518;2023-07-29T09:39:23;99906.00;;;25.81;100.00
13695;BME280;6919;52.344;14.518;2023-07-29T09:41:53;99900.78;;;25.74;100.00
13695;BME280;6919;52.344;14.518;2023-07-29T09:44:21;99903.00;;;25.87;100.00
13695;BME280;6919;52.344;14.518;2023-07-29T09:46:49;99898.00;;;25.69;100.00
13695;BME280;6919;52.344;14.518;2023-07-29T09:49:17;99893.03;;;25.66;100.00
13695;BME280;6919;52.344;14.518;2023-07-29T09:51:46;99895.94;;;26.11;100.00
13695;BME280;6919;52.344;14.518;2023-07-29T09:54:14;99885.53;;;26.23;100.00
13695;BME280;6919;52.344;14.518;2023-07-29T09:56:43;99887.47;;;26.48;100.00
13695;BME280;6919;52.344;14.518;2023-07-29T09:59:13;99883.88;;;26.17;100.00
13695;BME280;6919;52.344;14.518;2023-07-29T10:01:42;99892.91;;;26.03;100.00
13695;BME280;6919;52.344;14.518;2023-07-29T10:04:12;99887.69;;;26.01;100.00
13695;BME280;6919;52.344;14.518;2023-07-29T10:06:42;99879.38;;;25.81;100.00
13695;BME280;6919;52.344;14.518;2023-07-29T10:09:11;99880.38;;;25.55;100.00
13695;BME280;6919;52.344;14.518;2023-07-29T10:11:41;99883.25;;;25.95;100.00
13695;BME280;6919;52.344;14.518;2023-07-29T10:14:11;99884.66;;;25.98;100.00
13695;BME280;6919;52.344;14.518;2023-07-29T10:16:42;99888.28;;;26.53;100.00
13695;BME280;6919;52.344;14.518;2023-07-29T10:19:13;99884.41;;;26.19;100.00
13695;BME280;6919;52.344;14.518;2023-07-29T10:21:47;99882.22;;;26.51;100.00
13695;BME280;6919;52.344;14.518;2023-07-29T10:24:19;99872.91;;;26.77;100.00
13695;BME280;6919;52.344;14.518;2023-07-29T10:26:58;99872.88;;;26.97;100.00
13695;BME280;6919;52.344;14.518;2023-07-29T10:29:31;99869.84;;;26.94;100.00
13695;BME280;6919;52.344;14.518;2023-07-29T10:32:04;99867.97;;;26.64;100.00
13695;BME280;6919;52.344;14.518;2023-07-29T10:34:34;99865.16;;;26.89;100.00
13695;BME280;6919;52.344;14.518;2023-07-29T10:37:04;99857.41;;;27.26;100.00
13695;BME280;6919;52.344;14.518;2023-07-29T10:39:38;99853.25;;;27.29;100.00
13695;BME280;6919;52.344;14.518;2023-07-29T10:42:07;99848.66;;;25.99;100.00
13695;BME280;6919;52.344;14.518;2023-07-29T10:44:49;99843.44;;;26.03;100.00
13695;BME280;6919;52.344;14.518;2023-07-29T10:47:22;99846.50;;;26.31;100.00
13695;BME280;6919;52.344;14.518;2023-07-29T10:49:54;99844.56;;;26.27;100.00
13695;BME280;6919;52.344;14.518;2023-07-29T10:52:39;99847.03;;;26.33;100.00
13695;BME280;6919;52.344;14.518;2023-07-29T10:55:29;99831.94;;;26.26;100.00
13695;BME280;6919;52.344;14.518;2023-07-29T10:58:12;99827.78;;;26.83;100.00
13695;BME280;6919;52.344;14.518;2023-07-29T11:00:42;99823.16;;;26.64;100.00
13695;BME280;6919;52.344;14.518;2023-07-29T11:03:13;99823.88;;;26.89;100.00
13695;BME280;6919;52.344;14.518;2023-07-29T11:05:46;99821.41;;;26.98;100.00
13695;BME280;6919;52.344;14.518;2023-07-29T11:08:20;99816.72;;;26.98;100.00
13695;BME280;6919;52.344;14.518;2023-07-29T11:11:08;99817.75;;;27.17;100.00
13695;BME280;6919;52.344;14.518;2023-07-29T11:13:38;99811.59;;;27.45;100.00
13695;BME280;6919;52.344;14.518;2023-07-29T11:16:06;99811.69;;;27.30;100.00
13695;BME280;6919;52.344;14.518;2023-07-29T11:18:36;99808.34;;;27.38;100.00
13695;BME280;6919;52.344;14.518;2023-07-29T11:21:04;99800.63;;;27.35;100.00
13695;BME280;6919;52.344;14.518;2023-07-29T11:23:36;99795.63;;;27.42;100.00
13695;BME280;6919;52.344;14.518;2023-07-29T11:26:05;99804.53;;;27.24;100.00
13695;BME280;6919;52.344;14.518;2023-07-29T11:28:38;99790.91;;;26.84;100.00
13695;BME280;6919;52.344;14.518;2023-07-29T11:31:07;99797.19;;;26.95;100.00
13695;BME280;6919;52.344;14.518;2023-07-29T11:33:39;99790.25;;;27.07;100.00
13695;BME280;6919;52.344;14.518;2023-07-29T11:36:18;99789.44;;;27.02;100.00
13695;BME280;6919;52.344;14.518;2023-07-29T11:38:47;99786.09;;;27.15;100.00
13695;BME280;6919;52.344;14.518;2023-07-29T11:41:20;99790.56;;;27.01;100.00
13695;BME280;6919;52.344;14.518;2023-07-29T11:43:49;99780.84;;;27.18;100.00
13695;BME280;6919;52.344;14.518;2023-07-29T11:46:22;99774.56;;;27.08;100.00
13695;BME280;6919;52.344;14.518;2023-07-29T11:48:54;99768.09;;;27.47;100.00
13695;BME280;6919;52.344;14.518;2023-07-29T11:51:23;99768.16;;;27.32;100.00
13695;BME280;6919;52.344;14.518;2023-07-29T11:53:54;99766.84;;;27.68;100.00
13695;BME280;6919;52.344;14.518;2023-07-29T11:56:23;99765.66;;;27.84;100.00
13695;BME280;6919;52.344;14.518;2023-07-29T11:58:53;99772.00;;;27.36;100.00
13695;BME280;6919;52.344;14.518;2023-07-29T12:01:22;99764.09;;;27.15;100.00
13695;BME280;6919;52.344;14.518;2023-07-29T12:03:53;99768.16;;;27.81;100.00
13695;BME280;6919;52.344;14.518;2023-07-29T12:06:22;99762.88;;;27.89;100.00
13695;BME280;6919;52.344;14.518;2023-07-29T12:08:51;99761.84;;;27.75;100.00
13695;BME280;6919;52.344;14.518;2023-07-29T12:11:20;99765.28;;;27.57;100.00
13695;BME280;6919;52.344;14.518;2023-07-29T12:13:49;99768.94;;;27.38;100.00
13695;BME280;6919;52.344;14.518;2023-07-29T12:16:17;99765.47;;;27.12;100.00
13695;BME280;6919;52.344;14.518;2023-07-29T12:18:46;99769.13;;;26.88;100.00
13695;BME280;6919;52.344;14.518;2023-07-29T12:21:19;99764.81;;;26.72;100.00
13695;BME280;6919;52.344;14.518;2023-07-29T12:23:49;99760.94;;;26.78;100.00
13695;BME280;6919;52.344;14.518;2023-07-29T12:26:18;99759.47;;;27.00;100.00
13695;BME280;6919;52.344;14.518;2023-07-29T12:28:46;99760.75;;;27.28;100.00
13695;BME280;6919;52.344;14.518;2023-07-29T12:31:15;99743.72;;;27.64;100.00
13695;BME280;6919;52.344;14.518;2023-07-29T12:33:43;99739.53;;;27.72;100.00
13695;BME280;6919;52.344;14.518;2023-07-29T12:36:11;99730.31;;;27.91;100.00
13695;BME280;6919;52.344;14.518;2023-07-29T12:38:43;99729.81;;;27.84;100.00
13695;BME280;6919;52.344;14.518;2023-07-29T12:41:11;99737.31;;;28.13;98.40
13695;BME280;6919;52.344;14.518;2023-07-29T12:43:39;99732.75;;;27.59;99.87
13695;BME280;6919;52.344;14.518;2023-07-29T12:46:07;99734.97;;;27.04;100.00
13695;BME280;6919;52.344;14.518;2023-07-29T12:48:36;99737.19;;;26.92;100.00
13695;BME280;6919;52.344;14.518;2023-07-29T12:51:04;99738.94;;;26.73;100.00
13695;BME280;6919;52.344;14.518;2023-07-29T12:53:32;99731.81;;;26.42;100.00
13695;BME280;6919;52.344;14.518;2023-07-29T12:56:02;99740.63;;;26.39;100.00
13695;BME280;6919;52.344;14.518;2023-07-29T12:58:30;99744.22;;;26.19;100.00